Date,TemperatureHighF,TemperatureAvgF,TemperatureLowF,DewpointHighF,DewpointAvgF,DewpointLowF,HumidityHigh,HumidityAvg,HumidityLow,PressureMaxIn,PressureMinIn,WindSpeedMaxMPH,WindSpeedAvgMPH,GustSpeedMaxMPH,PrecipitationSumIn
2013-9-1,84,75,64,70,63,56,91,68,40,29.99,29.76,11,2,20,0.01
2013-9-2,81,67,53,60,54,46,95,68,31,30.09,29.99,7,1,12,0.00
2013-9-3,87,68,48,62,56,47,95,71,40,30.09,30.00,7,1,10,0.00
2013-9-4,88,74,64,66,62,59,84,68,43,30.14,30.02,6,1,12,0.00
2013-9-5,88,78,67,67,64,60,91,64,41,30.17,30.07,8,2,14,0.07
2013-9-6,94,80,67,71,66,60,81,64,44,30.08,29.89,11,3,16,0.00
2013-9-7,95,80,72,73,68,53,90,69,27,29.92,29.82,12,2,26,0.00
2013-9-8,95,80,67,75,70,66,95,76,46,29.91,29.77,9,2,13,0.00
2013-9-9,98,85,74,72,62,55,82,49,25,29.85,29.77,19,6,26,0.00
2013-9-10,97,81,70,69,63,60,88,57,32,30.06,29.85,16,4,20,0.16
2013-9-11,82,74,69,72,69,65,95,84,67,30.11,30.03,6,0,15,0.60
2013-9-12,80,71,56,69,58,49,93,67,36,30.20,30.10,7,1,16,0.00
2013-9-13,76,62,49,56,51,47,95,71,39,30.21,30.05,5,0,10,0.01
2013-9-14,79,65,50,56,52,47,92,65,40,30.06,29.85,11,2,20,0.00
2013-9-15,69,66,63,65,58,53,93,77,61,30.21,29.84,8,2,15,0.36
2013-9-16,68,61,55,56,54,51,91,77,62,30.29,30.17,15,3,17,0.00
2013-9-17,77,65,58,70,62,55,95,89,73,30.17,29.87,10,2,18,0.22
2013-9-18,91,78,67,71,67,64,91,71,47,29.88,29.68,15,4,28,0.00
2013-9-19,83,72,60,68,62,51,91,72,55,30.00,29.72,9,3,16,0.14
2013-9-20,72,59,47,53,48,44,91,69,38,30.08,29.95,9,1,17,0.00
2013-9-21,79,60,41,54,48,40,95,68,37,30.02,29.84,8,2,13,0.00
2013-9-22,82,68,54,57,52,46,89,61,31,29.89,29.79,15,4,22,0.00
2013-9-23,78,66,53,55,51,49,87,62,39,29.83,29.71,21,5,27,0.00
2013-9-24,71,64,54,58,56,52,92,74,62,29.89,29.68,13,2,16,0.00
2013-9-25,81,65,48,62,55,47,95,74,46,29.90,29.73,13,2,17,0.00
2013-9-26,89,74,61,61,58,57,89,63,35,29.79,29.72,26,7,30,0.00
2013-9-27,90,78,70,62,59,56,72,55,34,29.82,29.75,20,6,26,0.00
2013-9-28,74,61,45,64,51,43,92,72,40,30.05,29.66,15,3,21,0.37
2013-9-29,78,60,42,48,43,40,95,61,28,30.05,29.86,12,3,18,0.01
2013-9-30,82,66,53,53,50,46,84,60,33,29.89,29.70,14,4,23,0.00